Time;durP1;ratioP1;P1;durP2;ratioP2;P2;SDS_P1;SDS_P2;PMS_P1;PMS_P2;Temp;Humidity;BMP_temperature;BMP_pressure;BME280_temperature;BME280_humidity;BME280_pressure;Samples;Min_cycle;Max_cycle;Signal;HPM_P1;HPM_P2
2021/09/20 00:00:59;;;;;;;10.27;6.43;;;9.40;99.90;;;;;;5081695;28;19939;-64
2021/09/20 00:03:25;;;;;;;;;;;9.40;99.90;;;;;;5081434;28;20097;-62
2021/09/20 00:05:50;;;;;;;12.52;6.93;;;9.30;99.90;;;;;;5080797;28;19920;-63
2021/09/20 00:08:16;;;;;;;;;;;9.20;99.90;;;;;;5076391;28;20742;-62
2021/09/20 00:10:41;;;;;;;9.63;6.95;;;9.20;99.90;;;;;;5070082;28;19955;-63
2021/09/20 00:13:07;;;;;;;;;;;9.20;99.90;;;;;;5081552;28;20039;-63
2021/09/20 00:15:32;;;;;;;10.30;6.10;;;9.10;99.90;;;;;;5081596;28;19916;-62
2021/09/20 00:17:58;;;;;;;12.90;6.60;;;9.20;99.90;;;;;;5071811;28;20060;-63
2021/09/20 00:20:23;;;;;;;;;;;9.10;99.90;;;;;;5068711;28;20032;-63
2021/09/20 00:22:49;;;;;;;11.63;6.82;;;9.10;99.90;;;;;;5068299;28;20201;-63
2021/09/20 00:25:15;;;;;;;;;;;8.90;99.90;;;;;;5068021;28;20044;-63
2021/09/20 00:27:40;;;;;;;11.68;7.32;;;8.80;99.90;;;;;;5067405;28;19916;-63
2021/09/20 00:30:07;;;;;;;;;;;8.80;99.90;;;;;;5068854;28;20407;-62
2021/09/20 00:32:33;;;;;;;9.90;6.90;;;8.80;99.90;;;;;;5059011;28;20444;-62
2021/09/20 00:34:58;;;;;;;;;;;8.80;99.90;;;;;;5054568;28;20276;-63
2021/09/20 00:37:24;;;;;;;9.48;5.97;;;8.80;99.90;;;;;;5061267;28;19923;-63
2021/09/20 00:39:49;;;;;;;;;;;8.90;99.90;;;;;;5049919;28;20044;-63
2021/09/20 00:42:15;;;;;;;10.82;6.10;;;8.90;99.90;;;;;;5061562;28;19921;-63
2021/09/20 00:44:41;;;;;;;;;;;9.00;99.90;;;;;;5050842;28;20036;-63
2021/09/20 00:47:06;;;;;;;10.50;6.57;;;8.70;99.90;;;;;;5046163;28;19921;-63
2021/09/20 00:49:32;;;;;;;;;;;8.70;99.90;;;;;;5049050;28;20037;-62
2021/09/20 00:51:58;;;;;;;10.75;6.38;;;8.60;99.90;;;;;;5049434;28;20007;-63
2021/09/20 00:54:23;;;;;;;11.57;6.45;;;8.50;99.90;;;;;;5067702;28;20041;-63
2021/09/20 00:56:49;;;;;;;;;;;8.40;99.90;;;;;;5067851;28;20098;-62
2021/09/20 00:59:17;;;;;;;8.75;5.90;;;8.20;99.90;;;;;;5066804;28;19962;-63
2021/09/20 01:01:43;;;;;;;11.93;7.00;;;8.20;99.90;;;;;;5064889;28;20508;-62
2021/09/20 01:04:08;;;;;;;;;;;8.20;99.90;;;;;;5066934;28;20033;-62
2021/09/20 01:06:34;;;;;;;10.18;6.50;;;8.20;99.90;;;;;;5065558;28;19920;-63
2021/09/20 01:08:59;;;;;;;;;;;8.00;99.90;;;;;;5056575;28;20029;-63
2021/09/20 01:11:25;;;;;;;8.68;6.35;;;8.10;99.90;;;;;;5061973;28;19964;-63
2021/09/20 01:13:50;;;;;;;;;;;8.10;99.90;;;;;;5068169;28;20105;-63
2021/09/20 01:16:16;;;;;;;10.55;6.90;;;8.00;99.90;;;;;;5062638;28;19962;-63
2021/09/20 01:18:41;;;;;;;;;;;8.00;99.90;;;;;;5059467;28;20068;-63
2021/09/20 01:21:07;;;;;;;10.57;6.68;;;7.90;99.90;;;;;;5047887;28;19927;-63
2021/09/20 01:23:33;;;;;;;;;;;7.80;99.90;;;;;;5046979;28;20041;-63
2021/09/20 01:25:58;;;;;;;10.98;6.68;;;7.70;99.90;;;;;;5046591;28;20011;-62
2021/09/20 01:28:24;;;;;;;;;;;7.70;99.90;;;;;;5047639;28;20044;-63
2021/09/20 01:30:50;;;;;;;11.35;7.22;;;7.70;99.90;;;;;;5045016;28;19971;-63
2021/09/20 01:33:15;;;;;;;;;;;7.60;99.90;;;;;;5047323;28;20036;-63
2021/09/20 01:35:41;;;;;;;11.32;7.00;;;7.60;99.90;;;;;;5046512;28;19920;-63
2021/09/20 01:38:06;;;;;;;;;;;7.70;99.90;;;;;;5050811;28;20040;-63
2021/09/20 01:40:32;;;;;;;9.80;6.78;;;7.60;99.90;;;;;;5060204;28;19913;-63
2021/09/20 01:42:57;;;;;;;;;;;7.60;99.90;;;;;;5047249;28;20212;-63
2021/09/20 01:45:26;;;;;;;9.82;5.93;;;7.40;99.90;;;;;;5045059;28;19928;-62
2021/09/20 01:47:53;;;;;;;13.40;7.38;;;7.40;99.90;;;;;;5045541;28;20040;-63
2021/09/20 01:50:18;;;;;;;11.18;7.18;;;7.30;99.90;;;;;;5047277;28;20037;-62
2021/09/20 01:52:44;;;;;;;;;;;7.30;99.90;;;;;;5054376;28;20059;-63
2021/09/20 01:55:12;;;;;;;13.50;6.90;;;7.30;99.90;;;;;;5066605;28;19970;-63
2021/09/20 01:57:37;;;;;;;10.45;7.28;;;7.10;99.90;;;;;;5065620;28;20389;-62
2021/09/20 02:00:04;;;;;;;;;;;7.20;99.90;;;;;;5066278;28;20845;-62
2021/09/20 02:02:30;;;;;;;11.40;7.90;;;7.10;99.90;;;;;;5066641;28;19916;-62
2021/09/20 02:04:55;;;;;;;;;;;7.10;99.90;;;;;;5066376;28;20086;-63
2021/09/20 02:07:21;;;;;;;13.93;7.68;;;7.10;99.90;;;;;;5064386;28;19929;-63
2021/09/20 02:09:46;;;;;;;;;;;7.00;99.90;;;;;;5050294;28;20117;-63
2021/09/20 02:12:12;;;;;;;15.32;7.97;;;7.00;99.90;;;;;;5066746;28;20006;-63
2021/09/20 02:14:37;;;;;;;18.20;9.45;;;7.00;99.90;;;;;;5065075;28;20040;-62
2021/09/20 02:17:03;;;;;;;;;;;7.00;99.90;;;;;;5065529;28;20070;-63
2021/09/20 02:19:28;;;;;;;11.18;7.22;;;6.90;99.90;;;;;;5066795;28;19939;-63
2021/09/20 02:21:54;;;;;;;;;;;6.80;99.90;;;;;;5066587;28;20138;-63
2021/09/20 02:24:19;;;;;;;12.63;7.32;;;6.80;99.90;;;;;;5065885;28;19916;-63
2021/09/20 02:26:45;;;;;;;12.35;7.18;;;6.90;99.90;;;;;;5065244;28;20450;-63
2021/09/20 02:29:10;;;;;;;;;;;6.80;99.90;;;;;;5066227;28;20033;-62
2021/09/20 02:31:37;;;;;;;14.15;8.30;;;6.80;99.90;;;;;;5066527;28;19920;-63
2021/09/20 02:34:03;;;;;;;13.95;8.23;;;6.80;99.90;;;;;;5066044;28;20043;-63
2021/09/20 02:36:28;;;;;;;;;;;6.70;99.90;;;;;;5066605;28;20048;-63
2021/09/20 02:38:54;;;;;;;11.07;7.10;;;6.70;99.90;;;;;;5056393;28;20371;-63
2021/09/20 02:41:19;;;;;;;;;;;6.70;99.90;;;;;;5056824;28;20044;-62
2021/09/20 02:43:45;;;;;;;13.70;7.72;;;6.70;99.90;;;;;;5056804;28;19921;-62
2021/09/20 02:46:11;;;;;;;;;;;6.70;99.90;;;;;;5065285;28;20690;-63
2021/09/20 02:48:37;;;;;;;11.40;7.50;;;6.70;99.90;;;;;;5065357;28;20387;-63
2021/09/20 02:51:03;;;;;;;14.77;7.25;;;6.70;99.90;;;;;;5066331;28;20070;-62
2021/09/20 02:53:29;;;;;;;;;;;6.60;99.90;;;;;;5052997;28;20078;-63
2021/09/20 02:55:55;;;;;;;12.93;7.63;;;6.50;99.90;;;;;;5045447;28;19925;-62
2021/09/20 02:58:21;;;;;;;;;;;6.50;99.90;;;;;;5052505;28;20151;-62
2021/09/20 03:00:47;;;;;;;12.45;7.63;;;6.50;99.90;;;;;;5065952;28;20398;-63
2021/09/20 03:03:12;;;;;;;;;;;6.60;99.90;;;;;;5065497;28;20033;-62
2021/09/20 03:05:38;;;;;;;10.80;7.85;;;6.50;99.90;;;;;;5065417;28;19920;-62
2021/09/20 03:08:04;;;;;;;;;;;6.50;99.90;;;;;;5062622;28;20037;-62
2021/09/20 03:10:30;;;;;;;15.60;7.90;;;6.50;99.90;;;;;;5052278;28;20330;-63
2021/09/20 03:12:56;;;;;;;13.32;8.32;;;6.60;99.90;;;;;;5063862;28;20408;-63
2021/09/20 03:15:22;;;;;;;;;;;6.60;99.90;;;;;;5064994;28;20039;-63
2021/09/20 03:17:48;;;;;;;16.10;8.45;;;6.50;99.90;;;;;;5065048;28;19916;-63
2021/09/20 03:20:15;;;;;;;12.30;7.85;;;6.50;99.90;;;;;;5064638;28;20411;-62
2021/09/20 03:22:41;;;;;;;12.60;7.80;;;6.40;99.90;;;;;;5057148;28;20072;-63
2021/09/20 03:25:07;;;;;;;;;;;6.50;99.90;;;;;;5065828;28;20126;-63
2021/09/20 03:27:33;;;;;;;13.07;7.63;;;6.40;99.90;;;;;;5063524;28;19920;-63
2021/09/20 03:29:58;;;;;;;;;;;6.40;99.90;;;;;;5066397;28;20036;-63
2021/09/20 03:32:24;;;;;;;11.57;7.35;;;6.30;99.90;;;;;;5064870;28;19923;-63
2021/09/20 03:34:49;;;;;;;;;;;6.20;99.90;;;;;;5065641;28;20048;-63
2021/09/20 03:37:15;;;;;;;12.07;8.05;;;6.20;99.90;;;;;;5065256;28;19948;-63
2021/09/20 03:39:40;;;;;;;;;;;6.20;99.90;;;;;;5049474;28;20041;-63
2021/09/20 03:42:06;;;;;;;15.65;7.72;;;6.20;99.90;;;;;;5064726;28;19916;-63
2021/09/20 03:44:31;;;;;;;;;;;6.10;99.90;;;;;;5065877;28;20036;-63
2021/09/20 03:46:57;;;;;;;11.02;7.32;;;6.10;99.90;;;;;;5065082;28;19960;-62
2021/09/20 03:49:22;;;;;;;;;;;6.20;99.90;;;;;;5066407;28;20047;-62
2021/09/20 03:51:48;;;;;;;17.67;8.55;;;6.10;99.90;;;;;;5065808;28;20326;-61
2021/09/20 03:54:13;;;;;;;12.77;8.57;;;6.10;99.90;;;;;;5060597;28;20043;-62
2021/09/20 03:56:39;;;;;;;;;;;6.20;99.90;;;;;;5052095;28;20129;-63
2021/09/20 03:59:04;;;;;;;11.00;7.18;;;6.20;99.90;;;;;;5062712;28;20006;-62
2021/09/20 04:01:30;;;;;;;14.27;9.15;;;6.10;99.90;;;;;;5068455;28;20033;-62
2021/09/20 04:03:55;;;;;;;;;;;6.00;99.90;;;;;;5067390;28;20048;-63
2021/09/20 04:06:21;;;;;;;11.65;7.55;;;6.00;99.90;;;;;;5068835;28;20012;-63
2021/09/20 04:08:47;;;;;;;13.73;8.63;;;6.10;99.90;;;;;;5060143;28;20390;-63
2021/09/20 04:11:12;;;;;;;;;;;6.10;99.90;;;;;;5061437;28;20041;-62
2021/09/20 04:13:38;;;;;;;12.98;8.13;;;6.00;99.90;;;;;;5067876;28;19963;-62
2021/09/20 04:16:03;;;;;;;13.15;8.70;;;6.00;99.90;;;;;;5067408;28;20048;-59
2021/09/20 04:18:29;;;;;;;12.40;8.75;;;6.00;99.90;;;;;;5068711;28;20143;-61
2021/09/20 04:20:55;;;;;;;13.77;8.85;;;6.00;99.90;;;;;;5069432;28;20052;-61
2021/09/20 04:23:22;;;;;;;;;;;6.00;99.90;;;;;;5069502;28;20041;-57
2021/09/20 04:25:48;;;;;;;12.88;7.90;;;6.00;99.90;;;;;;5065367;28;19924;-59
2021/09/20 04:28:14;;;;;;;11.48;7.82;;;5.90;99.90;;;;;;5067248;28;20040;-60
2021/09/20 04:30:43;;;;;;;;;;;5.90;99.90;;;;;;5069017;28;20032;-61
2021/09/20 04:33:11;;;;;;;15.45;9.55;;;5.90;99.90;;;;;;5068132;28;20439;-61
2021/09/20 04:35:36;;;;;;;15.93;9.45;;;5.90;99.90;;;;;;5068460;28;20059;-61
2021/09/20 04:38:02;;;;;;;;;;;5.80;99.90;;;;;;5057894;28;20045;-56
2021/09/20 04:40:27;;;;;;;12.45;8.45;;;5.90;99.90;;;;;;5054041;28;19916;-60
2021/09/20 04:42:53;;;;;;;14.68;9.55;;;5.80;99.90;;;;;;5067475;28;20133;-59
2021/09/20 04:45:19;;;;;;;;;;;5.80;99.90;;;;;;5068567;28;20656;-59
2021/09/20 04:47:45;;;;;;;15.48;8.75;;;5.80;99.90;;;;;;5067723;28;20007;-59
2021/09/20 04:50:10;;;;;;;11.82;8.57;;;5.70;99.90;;;;;;5067170;28;20115;-58
2021/09/20 04:52:36;;;;;;;;;;;5.70;99.90;;;;;;5061921;28;20179;-59
2021/09/20 04:55:02;;;;;;;14.13;8.20;;;5.80;99.90;;;;;;5047358;28;19923;-58
2021/09/20 04:57:27;;;;;;;15.05;9.23;;;5.70;99.90;;;;;;5047586;28;20049;-58
2021/09/20 04:59:53;;;;;;;;;;;5.70;99.90;;;;;;5068344;28;20040;-59
2021/09/20 05:02:18;;;;;;;15.10;9.40;;;5.70;99.90;;;;;;5067315;28;19916;-60
2021/09/20 05:04:44;;;;;;;;;;;5.60;99.90;;;;;;5068796;28;20120;-60
2021/09/20 05:07:09;;;;;;;17.42;8.80;;;5.60;99.90;;;;;;5067172;28;19993;-61
2021/09/20 05:09:35;;;;;;;17.45;9.60;;;5.60;99.90;;;;;;5052659;28;20037;-60
2021/09/20 05:12:00;;;;;;;;;;;5.60;99.90;;;;;;5067061;28;20044;-61
2021/09/20 05:14:26;;;;;;;16.25;8.48;;;5.50;99.90;;;;;;5058279;28;19921;-60
2021/09/20 05:16:52;;;;;;;16.02;9.02;;;5.50;99.90;;;;;;5064197;28;20432;-60
2021/09/20 05:19:18;;;;;;;16.35;9.05;;;5.50;99.90;;;;;;5067432;28;20042;-60
2021/09/20 05:21:44;;;;;;;;;;;5.50;99.90;;;;;;5068493;28;20041;-58
2021/09/20 05:24:09;;;;;;;21.63;12.35;;;5.50;99.90;;;;;;5066829;28;19916;-60
2021/09/20 05:26:35;;;;;;;17.67;10.55;;;5.50;99.90;;;;;;5066325;28;20086;-60
2021/09/20 05:29:00;;;;;;;;;;;5.60;99.90;;;;;;5067910;28;20036;-61
2021/09/20 05:31:26;;;;;;;13.98;9.55;;;5.60;99.90;;;;;;5067155;28;19928;-61
2021/09/20 05:33:51;;;;;;;;;;;5.60;99.90;;;;;;5068128;28;20496;-60
2021/09/20 05:36:17;;;;;;;17.42;9.10;;;5.70;99.90;;;;;;5066886;28;19916;-60
2021/09/20 05:38:42;;;;;;;12.13;8.05;;;5.60;99.90;;;;;;5051412;28;20037;-60
2021/09/20 05:41:08;;;;;;;;;;;5.70;99.90;;;;;;5067790;28;20036;-61
2021/09/20 05:43:33;;;;;;;14.55;8.55;;;5.70;99.90;;;;;;5066366;28;20549;-61
2021/09/20 05:45:59;;;;;;;11.98;8.40;;;5.80;99.90;;;;;;5066327;28;20545;-61
2021/09/20 05:48:25;;;;;;;17.17;8.68;;;5.90;99.90;;;;;;5067239;28;20036;-60
2021/09/20 05:50:50;;;;;;;;;;;5.80;99.90;;;;;;5067612;28;20045;-61
2021/09/20 05:53:16;;;;;;;23.75;10.10;;;5.80;99.90;;;;;;5055062;28;19926;-61
2021/09/20 05:55:41;;;;;;;;;;;5.90;99.90;;;;;;5046947;28;20041;-61
2021/09/20 05:58:07;;;;;;;16.65;8.70;;;5.90;99.90;;;;;;5052157;28;20277;-61
2021/09/20 06:00:33;;;;;;;;;;;6.00;99.90;;;;;;5063185;28;20627;-58
2021/09/20 06:02:59;;;;;;;14.90;8.73;;;6.00;99.90;;;;;;5064235;28;19923;-60
2021/09/20 06:05:26;;;;;;;;;;;6.00;99.90;;;;;;5067100;28;20040;-59
2021/09/20 06:07:51;;;;;;;23.63;12.60;;;6.00;99.90;;;;;;5056752;28;20007;-60
2021/09/20 06:10:17;;;;;;;;;;;6.00;99.90;;;;;;5060184;28;20519;-55
2021/09/20 06:12:45;;;;;;;19.20;11.48;;;6.00;99.90;;;;;;5065379;28;20498;-61
2021/09/20 06:15:12;;;;;;;19.02;9.57;;;6.10;99.90;;;;;;5064735;28;20119;-61
2021/09/20 06:17:38;;;;;;;13.48;8.88;;;6.10;99.90;;;;;;5065747;28;20755;-60
2021/09/20 06:20:06;;;;;;;17.58;10.02;;;6.10;99.90;;;;;;5067724;28;20174;-61
2021/09/20 06:22:32;;;;;;;18.35;9.60;;;6.20;99.90;;;;;;5066684;28;20040;-61
2021/09/20 06:24:59;;;;;;;;;;;6.20;99.90;;;;;;5067817;28;20051;-61
2021/09/20 06:27:28;;;;;;;12.32;8.15;;;6.30;99.90;;;;;;5064221;28;19945;-58
2021/09/20 06:29:54;;;;;;;14.18;9.45;;;6.40;99.90;;;;;;5058561;28;20087;-57
2021/09/20 06:32:20;;;;;;;13.82;9.23;;;6.40;99.90;;;;;;5067394;28;20048;-61
2021/09/20 06:34:46;;;;;;;;;;;6.50;99.90;;;;;;5066965;28;20040;-61
2021/09/20 06:37:12;;;;;;;14.82;8.35;;;6.70;99.90;;;;;;5061935;28;19920;-60
2021/09/20 06:39:37;;;;;;;19.15;8.73;;;6.70;99.90;;;;;;5053855;28;20082;-60
2021/09/20 06:42:05;;;;;;;;;;;6.80;99.90;;;;;;5066482;28;20059;-61
2021/09/20 06:44:31;;;;;;;20.25;9.63;;;7.00;99.90;;;;;;5066369;28;19985;-61
2021/09/20 06:46:56;;;;;;;;;;;7.20;99.90;;;;;;5065836;28;20442;-60
2021/09/20 06:49:22;;;;;;;11.70;7.68;;;7.30;99.90;;;;;;5067205;28;20427;-61
2021/09/20 06:51:50;;;;;;;;;;;7.40;99.90;;;;;;5069697;28;20090;-60
2021/09/20 06:54:21;;;;;;;13.52;8.68;;;7.50;99.90;;;;;;5072650;28;20996;-61
2021/09/20 06:56:48;;;;;;;17.60;8.88;;;7.70;99.90;;;;;;5065895;28;20101;-61
2021/09/20 06:59:14;;;;;;;12.90;8.32;;;7.80;99.90;;;;;;5066900;28;20041;-62
2021/09/20 07:01:40;;;;;;;18.17;9.93;;;8.00;99.90;;;;;;5066927;28;20052;-63
2021/09/20 07:04:05;;;;;;;;;;;8.00;99.90;;;;;;5066596;28;20396;-63
2021/09/20 07:06:31;;;;;;;13.45;8.43;;;8.20;99.90;;;;;;5065728;28;19920;-63
2021/09/20 07:08:57;;;;;;;21.70;8.75;;;8.30;99.90;;;;;;5048557;28;20120;-61
2021/09/20 07:11:23;;;;;;;;;;;8.40;99.90;;;;;;5067145;28;20041;-62
2021/09/20 07:13:48;;;;;;;15.93;8.00;;;8.40;99.90;;;;;;5063353;28;19916;-61
2021/09/20 07:16:14;;;;;;;;;;;8.50;99.90;;;;;;5053131;28;20149;-61
2021/09/20 07:18:40;;;;;;;17.35;8.60;;;8.60;99.90;;;;;;5046811;28;19928;-62
2021/09/20 07:21:06;;;;;;;;;;;8.70;99.90;;;;;;5048865;28;20041;-61
2021/09/20 07:23:32;;;;;;;15.05;7.75;;;8.70;99.90;;;;;;5046093;28;20545;-62
2021/09/20 07:25:58;;;;;;;13.52;8.13;;;8.80;99.90;;;;;;5045719;28;20053;-62
2021/09/20 07:28:24;;;;;;;17.58;8.20;;;8.80;99.90;;;;;;5048626;28;20739;-62
2021/09/20 07:30:49;;;;;;;;;;;8.90;99.90;;;;;;5050477;28;20033;-62
2021/09/20 07:33:15;;;;;;;10.88;7.53;;;8.90;99.90;;;;;;5049612;28;20027;-64
2021/09/20 07:35:41;;;;;;;;;;;9.00;99.90;;;;;;5056401;28;20048;-62
2021/09/20 07:38:06;;;;;;;11.60;7.32;;;9.10;99.90;;;;;;5059633;28;19978;-62
2021/09/20 07:40:32;;;;;;;;;;;9.10;99.90;;;;;;5055951;28;20047;-62
2021/09/20 07:42:59;;;;;;;13.77;7.97;;;9.10;99.90;;;;;;5068787;28;19916;-61
2021/09/20 07:45:25;;;;;;;14.43;8.05;;;9.20;99.90;;;;;;5067946;28;20209;-62
2021/09/20 07:47:51;;;;;;;12.73;8.05;;;9.30;99.90;;;;;;5069057;28;20032;-61
2021/09/20 07:50:18;;;;;;;;;;;9.40;99.90;;;;;;5070682;28;20089;-61
2021/09/20 07:52:45;;;;;;;12.57;8.23;;;9.50;99.90;;;;;;5069376;28;19924;-61
2021/09/20 07:55:12;;;;;;;18.20;8.65;;;9.60;99.90;;;;;;5057796;28;20036;-61
2021/09/20 07:57:38;;;;;;;13.73;8.13;;;9.70;99.90;;;;;;5049613;28;20204;-61
2021/09/20 08:00:04;;;;;;;;;;;9.90;99.90;;;;;;5069938;28;20823;-61
2021/09/20 08:02:30;;;;;;;12.23;8.07;;;9.90;99.90;;;;;;5069016;28;19916;-61
2021/09/20 08:04:55;;;;;;;;;;;10.00;99.90;;;;;;5069964;28;20324;-60
2021/09/20 08:07:21;;;;;;;21.25;8.63;;;10.10;99.90;;;;;;5064251;28;19925;-61
2021/09/20 08:09:46;;;;;;;;;;;10.10;99.90;;;;;;5057887;28;20037;-61
2021/09/20 08:12:12;;;;;;;20.95;8.45;;;10.10;99.90;;;;;;5069502;28;19920;-62
2021/09/20 08:14:37;;;;;;;;;;;10.20;99.90;;;;;;5069808;28;20045;-62
2021/09/20 08:17:03;;;;;;;12.38;6.97;;;11.10;99.90;;;;;;5067875;28;20386;-62
2021/09/20 08:19:28;;;;;;;;;;;11.80;99.90;;;;;;5061563;28;20050;-62
2021/09/20 08:21:54;;;;;;;14.05;7.47;;;12.50;99.60;;;;;;5051376;28;20001;-61
2021/09/20 08:24:20;;;;;;;;;;;12.70;99.80;;;;;;5049095;28;20045;-61
2021/09/20 08:26:46;;;;;;;12.93;7.32;;;12.10;99.90;;;;;;5048261;28;19928;-62
2021/09/20 08:29:11;;;;;;;;;;;11.60;99.60;;;;;;5048184;28;20127;-62
2021/09/20 08:31:37;;;;;;;15.43;7.18;;;11.40;99.90;;;;;;5048939;28;19924;-62
2021/09/20 08:34:02;;;;;;;;;;;11.30;99.90;;;;;;5049069;28;20041;-62
2021/09/20 08:36:28;;;;;;;11.20;6.75;;;11.20;99.90;;;;;;5048644;28;19928;-62
2021/09/20 08:38:54;;;;;;;;;;;11.10;99.90;;;;;;5064938;28;20071;-61
2021/09/20 08:41:20;;;;;;;14.00;7.35;;;11.20;99.90;;;;;;5048863;28;20372;-61
2021/09/20 08:43:45;;;;;;;;;;;11.20;99.90;;;;;;5048495;28;20429;-62
2021/09/20 08:46:12;;;;;;;12.43;7.10;;;11.20;99.90;;;;;;5047089;28;19921;-61
2021/09/20 08:48:47;;;;;;;17.88;7.00;;;11.30;99.90;;;;;;5048658;28;20079;-62
2021/09/20 08:51:16;;;;;;;10.38;6.93;;;11.20;99.80;;;;;;5047849;28;20051;-61
2021/09/20 08:53:42;;;;;;;12.50;7.35;;;11.10;99.30;;;;;;5062289;28;20044;-62
2021/09/20 08:56:08;;;;;;;10.48;5.95;;;11.20;99.90;;;;;;5067507;28;20051;-62
2021/09/20 08:58:34;;;;;;;11.63;6.63;;;11.20;98.90;;;;;;5066285;28;20137;-61
2021/09/20 09:01:00;;;;;;;;;;;11.30;98.90;;;;;;5060083;28;20040;-62
2021/09/20 09:03:27;;;;;;;12.60;7.35;;;11.60;99.20;;;;;;5062988;28;19928;-61
2021/09/20 09:05:53;;;;;;;7.93;5.82;;;11.70;99.90;;;;;;5059101;28;20140;-62
2021/09/20 09:08:33;;;;;;;13.13;6.00;;;11.80;98.20;;;;;;5059906;28;20392;-61
2021/09/20 09:11:18;;;;;;;9.55;6.10;;;11.70;98.10;;;;;;5061748;28;20041;-62
2021/09/20 09:13:46;;;;;;;8.73;5.80;;;11.50;98.00;;;;;;5059766;28;20052;-62
2021/09/20 09:16:23;;;;;;;7.88;5.40;;;11.40;97.20;;;;;;5058248;28;20041;-63
2021/09/20 09:19:06;;;;;;;8.25;5.93;;;11.50;97.80;;;;;;5064503;28;20044;-62
2021/09/20 09:21:38;;;;;;;8.43;5.85;;;11.50;97.80;;;;;;5055596;28;20506;-61
2021/09/20 09:24:10;;;;;;;8.48;5.90;;;11.40;97.90;;;;;;5067061;28;20528;-61
2021/09/20 09:26:37;;;;;;;8.10;5.55;;;11.40;98.40;;;;;;5059427;28;20681;-61
2021/09/20 09:29:11;;;;;;;7.25;5.47;;;11.30;98.60;;;;;;5049665;28;20044;-61
2021/09/20 09:31:39;;;;;;;7.00;5.53;;;11.30;98.30;;;;;;5048368;28;20048;-60
2021/09/20 09:34:24;;;;;;;7.57;5.38;;;11.30;98.10;;;;;;5040994;28;20149;-57
2021/09/20 09:36:50;;;;;;;8.85;5.82;;;11.20;98.30;;;;;;5063141;28;20059;-60
2021/09/20 09:39:30;;;;;;;8.80;5.57;;;11.00;97.30;;;;;;5054271;28;20032;-61
2021/09/20 09:41:56;;;;;;;9.30;6.00;;;11.00;98.50;;;;;;5059612;28;20488;-61
2021/09/20 09:44:34;;;;;;;8.82;6.13;;;11.00;99.10;;;;;;5055520;28;20048;-61
2021/09/20 09:46:59;;;;;;;10.32;6.15;;;10.90;98.70;;;;;;5055401;28;20052;-61
2021/09/20 09:49:27;;;;;;;;;;;10.80;98.90;;;;;;5060500;28;20043;-61
2021/09/20 09:52:02;;;;;;;9.52;6.18;;;10.80;98.90;;;;;;5063445;28;19927;-60
2021/09/20 09:54:36;;;;;;;11.30;6.20;;;10.90;99.60;;;;;;5072269;28;20041;-61
2021/09/20 09:57:21;;;;;;;8.15;5.72;;;10.90;99.80;;;;;;5056475;28;20051;-60
2021/09/20 09:59:58;;;;;;;10.32;6.63;;;11.00;99.40;;;;;;5060138;28;20044;-61
2021/09/20 10:02:36;;;;;;;12.68;6.70;;;11.00;99.80;;;;;;5054374;28;20132;-61
2021/09/20 10:05:05;;;;;;;8.02;5.80;;;11.00;99.70;;;;;;5064482;28;20512;-62
2021/09/20 10:07:33;;;;;;;10.90;6.60;;;11.00;99.90;;;;;;5055102;28;20067;-62
2021/09/20 10:10:02;;;;;;;12.65;8.68;;;10.90;99.90;;;;;;5064797;28;20040;-61
2021/09/20 10:12:29;;;;;;;12.10;7.72;;;10.90;99.90;;;;;;5058788;28;20048;-61
2021/09/20 10:15:00;;;;;;;11.55;6.47;;;11.00;99.90;;;;;;5058774;28;20452;-62
2021/09/20 10:17:28;;;;;;;11.57;7.57;;;11.00;99.90;;;;;;5057424;28;20062;-62
2021/09/20 10:19:54;;;;;;;11.45;7.40;;;10.90;99.90;;;;;;5054618;28;20131;-61
2021/09/20 10:22:21;;;;;;;12.52;7.65;;;10.90;99.90;;;;;;5059600;28;20099;-61
2021/09/20 10:24:51;;;;;;;10.90;7.05;;;10.80;99.90;;;;;;5064447;28;20037;-61
2021/09/20 10:27:21;;;;;;;10.77;7.20;;;10.90;99.90;;;;;;5054586;28;20048;-61
2021/09/20 10:29:53;;;;;;;12.07;7.65;;;10.90;99.90;;;;;;5064687;28;20044;-61
2021/09/20 10:32:20;;;;;;;14.30;7.40;;;11.00;99.90;;;;;;5063416;28;20049;-61
2021/09/20 10:34:49;;;;;;;9.45;6.95;;;11.00;99.90;;;;;;5064916;28;20044;-61
2021/09/20 10:37:22;;;;;;;12.35;8.23;;;10.90;99.90;;;;;;5053400;28;20113;-61
2021/09/20 10:39:57;;;;;;;13.77;8.32;;;10.90;99.90;;;;;;5051186;28;20507;-60
2021/09/20 10:42:59;;;;;;;13.55;7.65;;;10.80;99.90;;;;;;5064657;28;20056;-62
2021/09/20 10:45:49;;;;;;;15.73;8.02;;;10.80;99.90;;;;;;5064127;28;20736;-61
2021/09/20 10:48:29;;;;;;;15.57;8.35;;;10.70;99.90;;;;;;5063960;28;20150;-61
2021/09/20 10:51:02;;;;;;;14.65;8.85;;;10.80;99.90;;;;;;5064049;28;20048;-61
2021/09/20 10:53:34;;;;;;;10.20;7.10;;;10.70;99.90;;;;;;5063364;28;20045;-61
2021/09/20 10:56:03;;;;;;;11.73;7.28;;;10.80;99.90;;;;;;5063222;28;20052;-62
2021/09/20 10:58:34;;;;;;;19.30;8.10;;;10.80;99.90;;;;;;5062554;28;20055;-62
2021/09/20 11:01:20;;;;;;;15.68;9.32;;;10.80;99.90;;;;;;5063982;28;20497;-62
2021/09/20 11:03:59;;;;;;;12.32;8.43;;;10.80;99.90;;;;;;5058997;28;20060;-62
2021/09/20 11:06:35;;;;;;;15.70;8.20;;;10.80;99.90;;;;;;5063418;28;20044;-62
2021/09/20 11:09:03;;;;;;;13.10;8.85;;;10.90;99.90;;;;;;5051760;28;20051;-60
2021/09/20 11:11:39;;;;;;;16.35;8.65;;;10.80;99.90;;;;;;5063629;28;20174;-62
2021/09/20 11:14:14;;;;;;;13.30;8.18;;;10.80;99.90;;;;;;5064440;28;20488;-62
2021/09/20 11:17:01;;;;;;;10.75;7.53;;;10.80;99.90;;;;;;5057382;28;20045;-62
2021/09/20 11:19:33;;;;;;;;;;;10.80;99.90;;;;;;5065457;28;20098;-61
2021/09/20 11:22:12;;;;;;;14.55;7.72;;;10.90;99.90;;;;;;5063112;28;20385;-60
2021/09/20 11:24:42;;;;;;;14.25;8.23;;;10.90;99.90;;;;;;5064771;28;20044;-61
2021/09/20 11:27:24;;;;;;;12.88;7.57;;;11.00;99.90;;;;;;5062601;28;20413;-62
2021/09/20 11:30:00;;;;;;;14.93;8.13;;;11.00;99.90;;;;;;5065048;28;20097;-63
2021/09/20 11:32:27;;;;;;;10.65;7.30;;;11.10;99.90;;;;;;5063011;28;20043;-61
2021/09/20 11:34:55;;;;;;;15.20;8.18;;;11.10;99.90;;;;;;5061004;28;20041;-61
2021/09/20 11:37:30;;;;;;;17.10;9.15;;;11.10;99.90;;;;;;5060765;28;20041;-64
2021/09/20 11:40:09;;;;;;;11.50;7.70;;;11.00;99.90;;;;;;5061358;28;20060;-62
2021/09/20 11:42:38;;;;;;;11.50;7.30;;;11.00;99.90;;;;;;5056616;28;20037;-63
2021/09/20 11:45:22;;;;;;;10.00;6.80;;;11.10;99.90;;;;;;5062379;28;20445;-63
2021/09/20 11:48:09;;;;;;;12.88;7.00;;;11.10;99.90;;;;;;5061343;28;20442;-62
2021/09/20 11:50:38;;;;;;;9.40;6.13;;;11.00;99.90;;;;;;5052812;28;20083;-61
2021/09/20 11:53:07;;;;;;;9.55;6.35;;;10.90;99.90;;;;;;5065293;28;20138;-61
2021/09/20 11:55:43;;;;;;;23.55;9.20;;;10.90;99.90;;;;;;5066642;28;20081;-61
2021/09/20 11:58:12;;;;;;;8.70;6.13;;;10.90;99.90;;;;;;5055676;28;20169;-61
2021/09/20 12:00:40;;;;;;;12.07;7.20;;;10.80;99.90;;;;;;5056695;28;20385;-59
2021/09/20 12:03:09;;;;;;;9.75;6.55;;;10.80;99.90;;;;;;5057150;28;20049;-59
2021/09/20 12:05:42;;;;;;;10.52;6.10;;;10.80;99.90;;;;;;5062974;28;20045;-61
2021/09/20 12:08:11;;;;;;;9.85;6.75;;;11.00;99.90;;;;;;5063133;28;20151;-60
2021/09/20 12:10:51;;;;;;;11.57;6.88;;;11.00;99.90;;;;;;5058703;28;20508;-61
2021/09/20 12:13:21;;;;;;;10.38;6.60;;;11.00;99.90;;;;;;5052621;28;20055;-60
2021/09/20 12:15:48;;;;;;;9.63;6.15;;;11.00;99.90;;;;;;5048635;28;20036;-60
2021/09/20 12:18:19;;;;;;;11.32;7.13;;;11.00;99.90;;;;;;5049560;28;20489;-60
2021/09/20 12:20:48;;;;;;;9.43;6.93;;;11.00;99.90;;;;;;5056648;28;20119;-60
2021/09/20 12:23:18;;;;;;;11.07;5.82;;;11.10;99.90;;;;;;5060076;28;20066;-61
2021/09/20 12:25:49;;;;;;;11.18;6.65;;;11.10;99.90;;;;;;5066638;28;20040;-60
2021/09/20 12:28:24;;;;;;;11.18;6.47;;;11.10;99.90;;;;;;5068815;28;20032;-60
2021/09/20 12:30:57;;;;;;;15.15;6.10;;;11.10;99.90;;;;;;5068642;28;20033;-61
2021/09/20 12:33:24;;;;;;;12.82;6.53;;;11.00;99.90;;;;;;5068646;28;20045;-61
2021/09/20 12:35:49;;;;;;;14.10;6.75;;;11.00;99.90;;;;;;5068758;28;20040;-61
2021/09/20 12:38:16;;;;;;;;;;;11.00;99.90;;;;;;5057374;28;20516;-61
2021/09/20 12:40:42;;;;;;;10.52;5.97;;;10.90;99.90;;;;;;5064848;28;19923;-61
2021/09/20 12:43:09;;;;;;;;;;;10.90;99.90;;;;;;5068822;28;20381;-60
2021/09/20 12:45:41;;;;;;;;;;;10.80;99.90;;;;;;5068634;28;19923;-61
2021/09/20 12:48:07;;;;;;;9.60;5.60;;;10.90;99.90;;;;;;5069156;28;20049;-61
2021/09/20 12:50:37;;;;;;;;;;;10.90;99.90;;;;;;5069255;28;20120;-60
2021/09/20 12:53:02;;;;;;;15.10;6.43;;;10.90;99.90;;;;;;5059718;28;19923;-61
2021/09/20 12:55:33;;;;;;;;;;;10.90;99.90;;;;;;5069295;28;20399;-61
2021/09/20 12:57:59;;;;;;;9.85;6.25;;;10.90;99.90;;;;;;5064864;28;20408;-60
2021/09/20 13:00:37;;;;;;;;;;;10.80;99.90;;;;;;5062158;28;20121;-60
2021/09/20 13:03:10;;;;;;;10.60;5.55;;;10.80;99.90;;;;;;5068153;28;19916;-60
2021/09/20 13:05:44;;;;;;;13.00;6.78;;;10.90;99.90;;;;;;5068006;28;20052;-61
2021/09/20 13:08:11;;;;;;;12.90;6.28;;;10.90;99.90;;;;;;5057064;28;20416;-60
2021/09/20 13:10:42;;;;;;;13.80;7.20;;;10.90;99.90;;;;;;5063344;28;20036;-60
2021/09/20 13:13:08;;;;;;;15.65;6.95;;;10.90;99.90;;;;;;5068300;28;20138;-61